Pullman Moscow Regional Airport

About
Name: Pullman Moscow Regional Airport
Identifier:  PUW/KPUW
Serves:  Pullman-Moscow Combined Statistical Area
Owner:  Pullman–Moscow Regional Airport Board
Public/Private:  Public
Local Time:  15. Sep 07:01 PDT
Description: Pullman–Moscow Regional Airport is a public airport in the northwest United States, located in Whitman County, Washington, two miles east of Pullman and four miles west of Moscow, Idaho. The airport is accessed via spurs from State Route 270, and has a single 6,730-foot runway, headed northeast/southwest, aligned with Moscow Mountain) twelve miles to the northeast, the highest summit in the area.
Source: Wikipedia
Location
Runways
Identifier Length (m/ft) Surface
6/24 6,730/6,730 Asphalt
Statistics
Flights per Day:
0 flights
Distance: 401km (249mi)
Flights delayed:
-100% (0 flights per day delayed)
Delay Average: 13 minutes
Current Weather
 9 C (Humidity: 76%)
  0kt (0km/h / 0mph) from 0°
  16km (10 mi.)
 
 METAR KPUW 151253Z AUTO 00000KT 10SM CLR 09/05 A2981 RMK AO2 SLP085 T00890050

Current Delays

Departures
N/A
Arrivals
N/A

Destinations

Top Destinations
Airport Flights
per week
Seats
per week
  Seattle (SEA) 46 3,470 6 495
  Portland (PDX) 0 17 0 2

Airlines & Planes

Top Airlines
Airline Flights
per Day
Seats
per Day
  Horizon Air 6 498
Top Plane Types
Model Flights Seats
Bombardier Dash 8-400 6.7/day 498/day 498.26666666666665